createdAt,value
2018-02-05T00:01:26.016Z,9.12
2018-02-05T00:03:54.633Z,8.80
2018-02-05T00:06:23.339Z,8.85
2018-02-05T00:08:51.909Z,8.69
2018-02-05T00:11:20.442Z,8.48
2018-02-05T00:13:49.796Z,8.21
2018-02-05T00:16:19.156Z,8.38
2018-02-05T00:18:47.697Z,8.35
2018-02-05T00:21:17.313Z,7.94
2018-02-05T00:23:45.869Z,7.63
2018-02-05T00:26:14.416Z,7.72
2018-02-05T00:28:43.071Z,7.35
2018-02-05T00:31:12.405Z,7.46
2018-02-05T00:33:40.947Z,7.59
2018-02-05T00:36:10.309Z,7.55
2018-02-05T00:38:38.848Z,7.73
2018-02-05T00:41:08.159Z,7.48
2018-02-05T00:43:37.768Z,7.49
2018-02-05T00:46:06.328Z,7.50
2018-02-05T00:48:35.645Z,7.87
2018-02-05T00:51:04.470Z,7.94
2018-02-05T00:53:33.021Z,7.97
2018-02-05T00:56:01.592Z,8.24
2018-02-05T00:58:30.284Z,8.21
2018-02-05T01:00:58.845Z,8.19
2018-02-05T01:03:28.163Z,7.99
2018-02-05T01:05:57.516Z,8.13
2018-02-05T01:08:26.066Z,7.97
2018-02-05T01:10:54.609Z,8.07
2018-02-05T01:13:23.978Z,8.06
2018-02-05T01:15:52.521Z,8.01
2018-02-05T01:18:21.059Z,8.07
2018-02-05T01:20:49.649Z,8.39
2018-02-05T01:23:18.204Z,8.44
2018-02-05T01:25:46.747Z,8.37
2018-02-05T01:28:15.440Z,8.66
2018-02-05T01:30:43.980Z,8.68
2018-02-05T01:33:12.535Z,8.90
2018-02-05T01:35:46.608Z,8.68
2018-02-05T01:38:15.916Z,8.79
2018-02-05T01:40:44.484Z,8.64
2018-02-05T01:43:14.245Z,8.70
2018-02-05T01:45:42.789Z,8.76
2018-02-05T01:48:12.100Z,8.76
2018-02-05T01:50:41.020Z,8.64
2018-02-05T01:53:09.565Z,8.45
2018-02-05T01:55:38.103Z,8.56
2018-02-05T01:58:06.692Z,8.34
2018-02-05T02:00:35.232Z,8.40
2018-02-05T02:03:03.804Z,8.51
2018-02-05T02:05:32.499Z,8.42
2018-02-05T02:08:01.048Z,8.25
2018-02-05T02:10:30.361Z,8.35
2018-02-05T02:12:59.716Z,8.52
2018-02-05T02:15:28.264Z,8.80
2018-02-05T02:17:56.813Z,8.49
2018-02-05T02:20:26.178Z,8.62
2018-02-05T02:22:54.759Z,8.65
2018-02-05T02:25:23.304Z,8.64
2018-02-05T02:27:52.231Z,8.53
2018-02-05T02:30:20.822Z,8.45
2018-02-05T02:32:49.383Z,8.30
2018-02-05T02:35:24.324Z,8.16
2018-02-05T02:37:52.860Z,8.24
2018-02-05T02:40:22.183Z,8.04
2018-02-05T02:42:51.057Z,8.47
2018-02-05T02:45:19.668Z,8.61
2018-02-05T02:47:48.256Z,8.41
2018-02-05T02:50:16.972Z,8.46
2018-02-05T02:52:45.519Z,8.64
2018-02-05T02:55:24.407Z,8.49
2018-02-05T02:57:53.719Z,8.61
2018-02-05T03:00:23.059Z,8.32
2018-02-05T03:02:51.685Z,8.08
2018-02-05T03:05:20.236Z,8.11
2018-02-05T03:07:48.812Z,8.09
2018-02-05T03:10:17.511Z,8.04
2018-02-05T03:12:46.061Z,7.85
2018-02-05T03:15:16.640Z,8.14
2018-02-05T03:17:45.334Z,8.10
2018-02-05T03:20:13.881Z,8.08
2018-02-05T03:22:42.428Z,7.81
2018-02-05T03:25:11.017Z,7.15
2018-02-05T03:27:39.555Z,6.95
2018-02-05T03:30:08.115Z,6.63
2018-02-05T03:32:36.905Z,6.71
2018-02-05T03:35:05.458Z,6.51
2018-02-05T03:37:34.005Z,6.47
2018-02-05T03:40:03.423Z,6.62
2018-02-05T03:42:32.729Z,6.45
2018-02-05T03:45:02.298Z,6.54
2018-02-05T03:47:31.163Z,6.30
2018-02-05T03:49:59.753Z,6.37
2018-02-05T03:52:28.296Z,6.19
2018-02-05T03:54:57.124Z,6.13
2018-02-05T03:57:25.744Z,6.05
2018-02-05T03:59:55.065Z,6.03
2018-02-05T04:02:23.663Z,5.91
2018-02-05T04:04:52.212Z,5.90
2018-02-05T04:07:20.761Z,5.77
2018-02-05T04:09:49.754Z,5.59
2018-02-05T04:12:18.301Z,5.70
2018-02-05T04:14:46.854Z,5.51
2018-02-05T04:17:16.328Z,5.59
2018-02-05T04:19:44.897Z,5.52
2018-02-05T04:22:13.449Z,5.60
2018-02-05T04:24:42.225Z,5.59
2018-02-05T04:27:11.532Z,5.58
2018-02-05T04:29:40.080Z,5.66
2018-02-05T04:32:08.763Z,5.81
2018-02-05T04:34:37.343Z,5.68
2018-02-05T04:37:05.939Z,5.84
2018-02-05T04:39:34.908Z,5.94
2018-02-05T04:42:03.456Z,5.85
2018-02-05T04:44:32.000Z,6.03
2018-02-05T04:47:01.677Z,6.15
2018-02-05T04:49:30.229Z,6.08
2018-02-05T04:51:58.776Z,6.25
2018-02-05T04:54:27.613Z,6.26
2018-02-05T04:56:57.145Z,6.31
2018-02-05T04:59:25.693Z,6.22
2018-02-05T05:01:54.504Z,6.26
2018-02-05T05:04:23.048Z,6.07
2018-02-05T05:06:51.596Z,6.36
2018-02-05T05:09:20.184Z,6.09
2018-02-05T05:11:48.736Z,6.23
2018-02-05T05:14:17.297Z,6.11
2018-02-05T05:16:45.884Z,6.04
2018-02-05T05:19:14.429Z,6.03
2018-02-05T05:21:43.736Z,6.00
2018-02-05T05:24:13.093Z,6.06
2018-02-05T05:26:41.640Z,5.84
2018-02-05T05:29:12.166Z,5.63
2018-02-05T05:31:41.159Z,5.66
2018-02-05T05:34:09.705Z,5.58
2018-02-05T05:36:40.656Z,5.39
2018-02-05T05:39:09.268Z,5.47
2018-02-05T05:41:37.841Z,5.50
2018-02-05T05:44:06.396Z,5.56
2018-02-05T05:46:35.014Z,5.59
2018-02-05T05:49:04.151Z,5.59
2018-02-05T05:51:32.704Z,5.65
2018-02-05T05:54:01.408Z,5.54
2018-02-05T05:56:31.930Z,5.74
2018-02-05T05:59:00.468Z,5.75
2018-02-05T06:01:29.224Z,5.69
2018-02-05T06:03:58.535Z,5.90
2018-02-05T06:06:27.843Z,6.29
2018-02-05T06:08:56.552Z,6.64
2018-02-05T06:11:25.106Z,6.93
2018-02-05T06:13:53.652Z,7.02
2018-02-05T06:16:22.614Z,7.41
2018-02-05T06:18:51.159Z,7.67
2018-02-05T06:21:19.710Z,8.01
2018-02-05T06:23:48.578Z,8.40
2018-02-05T06:26:17.129Z,8.71
2018-02-05T06:28:45.729Z,8.79
2018-02-05T06:31:14.420Z,8.84
2018-02-05T06:33:43.727Z,9.08
2018-02-05T06:36:12.275Z,9.38
2018-02-05T06:38:41.660Z,9.26
2018-02-05T06:41:10.200Z,9.47
2018-02-05T06:43:39.515Z,9.47
2018-02-05T06:46:09.174Z,9.66
2018-02-05T06:48:37.704Z,9.79
2018-02-05T06:51:24.735Z,9.91
2018-02-05T06:54:10.993Z,10.41
2018-02-05T06:56:39.584Z,11.03
2018-02-05T06:59:08.142Z,10.69
2018-02-05T07:01:36.689Z,10.73
2018-02-05T07:04:05.415Z,10.51
2018-02-05T07:06:33.964Z,10.63
2018-02-05T07:09:02.495Z,9.95
2018-02-05T07:11:31.188Z,9.84
2018-02-05T07:13:59.730Z,9.79
2018-02-05T07:16:28.293Z,9.45
2018-02-05T07:18:56.889Z,10.15
2018-02-05T07:21:25.450Z,10.06
2018-02-05T07:23:54.013Z,9.94
2018-02-05T07:26:23.433Z,9.97
2018-02-05T07:28:52.739Z,9.62
2018-02-05T07:31:21.293Z,10.01
2018-02-05T07:33:49.900Z,10.23
2018-02-05T07:36:18.460Z,10.49
2018-02-05T07:38:47.022Z,11.36
2018-02-05T07:41:15.719Z,11.38
2018-02-05T07:43:44.283Z,11.22
2018-02-05T07:46:12.852Z,11.93
2018-02-05T07:48:41.456Z,12.49
2018-02-05T07:51:10.008Z,13.22
2018-02-05T07:53:39.333Z,12.63
2018-02-05T07:56:08.045Z,13.15
2018-02-05T07:58:36.592Z,12.73
2018-02-05T08:01:05.146Z,13.11
2018-02-05T08:03:33.747Z,13.56
2018-02-05T08:06:02.297Z,13.80
2018-02-05T08:08:30.856Z,13.34
2018-02-05T08:10:59.492Z,12.88
2018-02-05T08:13:28.060Z,12.82
2018-02-05T08:15:56.608Z,13.37
2018-02-05T08:18:25.439Z,13.27
2018-02-05T08:20:53.988Z,14.01
2018-02-05T08:23:22.539Z,14.34
2018-02-05T08:25:51.904Z,14.01
2018-02-05T08:28:20.449Z,13.56
2018-02-05T08:30:48.992Z,14.61
2018-02-05T08:33:18.482Z,14.25
2018-02-05T08:35:47.049Z,14.16
2018-02-05T08:38:15.595Z,14.84
2018-02-05T08:40:44.355Z,14.34
2018-02-05T08:43:13.676Z,15.03
2018-02-05T08:45:42.228Z,15.10
2018-02-05T08:48:10.828Z,14.04
2018-02-05T08:50:40.151Z,15.29
2018-02-05T08:53:08.725Z,15.66
2018-02-05T08:55:38.092Z,14.90
2018-02-05T08:58:06.654Z,15.44
2018-02-05T09:00:35.241Z,15.78
2018-02-05T09:03:03.856Z,15.26
2018-02-05T09:05:32.436Z,14.34
2018-02-05T09:08:01.774Z,14.80
2018-02-05T09:10:30.521Z,15.13
2018-02-05T09:12:59.848Z,15.20
2018-02-05T09:15:29.198Z,15.07
2018-02-05T09:17:57.908Z,15.26
2018-02-05T09:20:26.472Z,15.41
2018-02-05T09:22:55.792Z,14.95
2018-02-05T09:25:24.658Z,15.83
2018-02-05T09:27:53.217Z,15.45
2018-02-05T09:30:21.852Z,15.27
2018-02-05T09:32:50.464Z,16.20
2018-02-05T09:35:19.020Z,15.69
2018-02-05T09:37:47.588Z,16.02
2018-02-05T09:40:16.568Z,15.18
2018-02-05T09:42:45.130Z,15.82
2018-02-05T09:45:13.694Z,15.36
2018-02-05T09:47:43.240Z,15.99
2018-02-05T09:50:11.871Z,16.09
2018-02-05T09:52:41.204Z,16.28
2018-02-05T09:55:10.076Z,16.88
2018-02-05T09:57:38.806Z,16.50
2018-02-05T10:00:07.368Z,16.89
2018-02-05T10:02:36.183Z,16.88
2018-02-05T10:05:04.871Z,16.96
2018-02-05T10:07:33.564Z,17.27
2018-02-05T10:10:02.543Z,17.12
2018-02-05T10:12:31.239Z,17.74
2018-02-05T10:14:59.920Z,17.34
2018-02-05T10:17:28.610Z,16.65
2018-02-05T10:19:57.172Z,16.84
2018-02-05T10:22:25.822Z,16.88
2018-02-05T10:24:55.372Z,16.09
2018-02-05T10:27:24.832Z,15.75
2018-02-05T10:29:54.277Z,16.39
2018-02-05T10:32:22.964Z,16.38
2018-02-05T10:34:51.665Z,16.14
2018-02-05T10:37:20.335Z,16.82
2018-02-05T10:39:49.172Z,16.15
2018-02-05T10:42:18.589Z,17.40
2018-02-05T10:44:47.314Z,17.24
2018-02-05T10:47:16.109Z,17.44
2018-02-05T10:49:44.894Z,17.23
2018-02-05T10:52:13.586Z,17.48
2018-02-05T10:54:42.574Z,16.38
2018-02-05T10:57:11.260Z,17.28
2018-02-05T10:59:39.965Z,17.58
2018-02-05T11:02:08.909Z,16.99
2018-02-05T11:04:37.624Z,17.08
2018-02-05T11:07:06.269Z,17.97
2018-02-05T11:09:35.062Z,17.63
2018-02-05T11:12:03.779Z,17.49
2018-02-05T11:14:32.426Z,17.09
2018-02-05T11:17:01.316Z,17.46
2018-02-05T11:19:30.046Z,17.90
2018-02-05T11:21:58.726Z,16.81
2018-02-05T11:24:27.521Z,17.49
2018-02-05T11:26:56.202Z,17.65
2018-02-05T11:29:24.852Z,17.89
2018-02-05T11:31:53.573Z,18.82
2018-02-05T11:34:22.259Z,18.62
2018-02-05T11:36:50.945Z,18.23
2018-02-05T11:39:19.740Z,18.38
2018-02-05T11:41:48.472Z,17.80
2018-02-05T11:44:17.890Z,18.34
2018-02-05T11:46:46.678Z,18.61
2018-02-05T11:49:15.474Z,18.68
2018-02-05T11:51:44.213Z,18.54
2018-02-05T11:54:13.856Z,18.14
2018-02-05T11:56:42.504Z,18.00
2018-02-05T11:59:11.853Z,18.77
2018-02-05T12:01:40.791Z,18.00
2018-02-05T12:04:10.219Z,18.04
2018-02-05T12:06:38.929Z,17.34
2018-02-05T12:09:08.031Z,17.36
2018-02-05T12:11:36.659Z,18.14
2018-02-05T12:14:06.135Z,18.35
2018-02-05T12:16:35.020Z,18.23
2018-02-05T12:19:04.497Z,18.85
2018-02-05T12:21:33.209Z,19.41
2018-02-05T12:24:02.828Z,19.10
2018-02-05T12:26:31.471Z,18.95
2018-02-05T12:29:00.240Z,19.38
2018-02-05T12:31:29.128Z,19.16
2018-02-05T12:33:57.820Z,18.77
2018-02-05T12:36:26.507Z,18.96
2018-02-05T12:38:55.656Z,19.15
2018-02-05T12:41:25.109Z,18.38
2018-02-05T12:43:53.792Z,18.02
2018-02-05T12:46:22.888Z,18.08
2018-02-05T12:48:51.679Z,18.10
2018-02-05T12:51:20.256Z,18.89
2018-02-05T12:53:49.316Z,18.71
2018-02-05T12:56:18.043Z,19.06
2018-02-05T12:58:46.728Z,18.40
2018-02-05T13:01:26.364Z,17.59
2018-02-05T13:06:55.587Z,17.47
2018-02-05T13:09:24.280Z,17.48
2018-02-05T13:11:53.057Z,17.51
2018-02-05T13:14:22.147Z,17.47
2018-02-05T13:16:50.794Z,17.23
2018-02-05T13:19:20.111Z,16.82
2018-02-05T13:21:49.079Z,17.09
2018-02-05T13:24:18.537Z,17.12
2018-02-05T13:26:47.223Z,16.97
2018-02-05T13:29:16.385Z,17.95
2018-02-05T13:31:45.111Z,17.61
2018-02-05T13:34:13.796Z,17.01
2018-02-05T13:36:42.762Z,17.26
2018-02-05T13:39:11.474Z,16.99
2018-02-05T13:41:40.053Z,16.98
2018-02-05T13:44:09.044Z,16.33
2018-02-05T13:46:37.716Z,15.89
2018-02-05T13:49:06.380Z,16.11
2018-02-05T13:51:35.372Z,16.19
2018-02-05T13:54:04.094Z,16.08
2018-02-05T13:56:32.806Z,15.78
2018-02-05T13:59:01.926Z,15.59
2018-02-05T14:01:31.345Z,15.50
2018-02-05T14:03:59.968Z,15.73
2018-02-05T14:06:29.101Z,15.23
2018-02-05T14:08:58.597Z,15.19
2018-02-05T14:11:28.076Z,15.28
2018-02-05T14:13:56.761Z,14.72
2018-02-05T14:16:25.450Z,13.94
2018-02-05T14:18:59.762Z,13.54
2018-02-05T14:21:28.412Z,13.37
2018-02-05T14:23:57.128Z,13.11
2018-02-05T14:26:25.820Z,12.91
2018-02-05T14:28:54.507Z,12.83
2018-02-05T14:31:23.087Z,12.79
2018-02-05T14:33:51.777Z,12.90
2018-02-05T14:36:20.332Z,13.08
2018-02-05T14:38:49.040Z,12.93
2018-02-05T14:41:18.548Z,12.91
2018-02-05T14:43:47.221Z,13.08
2018-02-05T14:46:15.930Z,13.01
2018-02-05T14:48:44.728Z,13.14
2018-02-05T14:51:13.397Z,13.00
2018-02-05T14:53:42.898Z,12.93
2018-02-05T14:56:11.778Z,12.75
2018-02-05T14:58:40.425Z,12.69
2018-02-05T15:01:09.878Z,12.40
2018-02-05T15:03:38.661Z,12.41
2018-02-05T15:06:07.348Z,12.38
2018-02-05T15:08:36.034Z,12.28
2018-02-05T15:11:05.027Z,12.17
2018-02-05T15:13:34.228Z,11.97
2018-02-05T15:16:02.809Z,12.05
2018-02-05T15:18:31.691Z,11.89
2018-02-05T15:21:00.339Z,11.80
2018-02-05T15:23:29.070Z,11.75
2018-02-05T15:25:57.865Z,11.74
2018-02-05T15:28:26.539Z,11.67
2018-02-05T15:30:55.236Z,11.69
2018-02-05T15:33:24.229Z,11.80
2018-02-05T15:35:52.867Z,11.80
2018-02-05T15:38:21.515Z,11.85
2018-02-05T15:40:50.981Z,11.88
2018-02-05T15:43:19.600Z,11.91
2018-02-05T15:45:49.063Z,11.84
2018-02-05T15:48:18.007Z,11.95
2018-02-05T15:50:47.457Z,11.89
2018-02-05T15:53:16.196Z,11.81
2018-02-05T15:55:44.889Z,11.52
2018-02-05T15:58:13.520Z,11.39
2018-02-05T16:00:42.298Z,11.37
2018-02-05T16:03:11.291Z,11.42
2018-02-05T16:05:39.881Z,11.11
2018-02-05T16:08:08.552Z,10.94
2018-02-05T16:10:37.243Z,11.01
2018-02-05T16:13:05.889Z,10.89
2018-02-05T16:15:34.610Z,10.80
2018-02-05T16:18:03.401Z,10.80
2018-02-05T16:20:31.962Z,10.89
2018-02-05T16:23:00.530Z,10.73
2018-02-05T16:25:30.287Z,10.68
2018-02-05T16:27:58.862Z,10.70
2018-02-05T16:30:27.472Z,10.68
2018-02-05T16:32:56.337Z,10.51
2018-02-05T16:35:24.925Z,10.50
2018-02-05T16:37:53.683Z,10.35
2018-02-05T16:40:22.681Z,10.34
2018-02-05T16:42:51.263Z,10.19
2018-02-05T16:45:20.018Z,10.27
2018-02-05T16:47:48.802Z,10.35
2018-02-05T16:50:17.457Z,10.14
2018-02-05T16:52:46.154Z,10.14
2018-02-05T16:55:14.938Z,10.04
2018-02-05T16:57:43.626Z,10.12
2018-02-05T17:00:12.407Z,10.07
2018-02-05T17:02:41.143Z,10.07
2018-02-05T17:05:09.863Z,10.06
2018-02-05T17:07:40.053Z,9.99
2018-02-05T17:10:09.238Z,10.14
2018-02-05T17:12:38.006Z,9.97
2018-02-05T17:15:06.694Z,9.97
2018-02-05T17:17:35.487Z,10.02
2018-02-05T17:20:04.370Z,9.91
2018-02-05T17:22:32.938Z,9.97
2018-02-05T17:25:01.556Z,10.13
2018-02-05T17:27:31.002Z,10.19
2018-02-05T17:29:59.692Z,10.09
2018-02-05T17:32:28.720Z,10.11
2018-02-05T17:34:57.406Z,10.16
2018-02-05T17:37:26.046Z,10.17
2018-02-05T17:39:55.088Z,10.28
2018-02-05T17:42:23.881Z,10.44
2018-02-05T17:44:52.606Z,10.31
2018-02-05T17:47:21.338Z,10.40
2018-02-05T17:49:50.796Z,10.37
2018-02-05T17:52:19.382Z,10.32
2018-02-05T17:54:47.996Z,10.37
2018-02-05T17:57:16.755Z,10.13
2018-02-05T17:59:45.540Z,10.33
2018-02-05T18:02:14.275Z,10.37
2018-02-05T18:04:43.734Z,10.30
2018-02-05T18:07:12.414Z,10.29
2018-02-05T18:09:41.302Z,10.34
2018-02-05T18:12:09.989Z,10.32
2018-02-05T18:14:38.674Z,10.25
2018-02-05T18:17:07.667Z,10.28
2018-02-05T18:19:36.323Z,10.26
2018-02-05T18:22:04.885Z,10.29
2018-02-05T18:24:34.650Z,10.41
2018-02-05T18:27:03.331Z,10.41
2018-02-05T18:29:31.920Z,10.41
2018-02-05T18:32:00.863Z,10.54
2018-02-05T18:34:30.282Z,10.44
2018-02-05T18:36:59.874Z,10.41
2018-02-05T18:39:28.766Z,10.57
2018-02-05T18:41:58.230Z,10.63
2018-02-05T18:44:26.901Z,10.52
2018-02-05T18:46:55.893Z,10.67
2018-02-05T18:49:25.607Z,10.71
2018-02-05T18:51:54.393Z,10.74
2018-02-05T18:54:23.098Z,10.61
2018-02-05T18:56:51.863Z,10.59
2018-02-05T18:59:20.549Z,10.78
2018-02-05T19:02:25.078Z,10.82
2018-02-05T19:04:53.765Z,10.77
2018-02-05T19:07:22.411Z,10.72
2018-02-05T19:09:51.104Z,10.66
2018-02-05T19:12:19.664Z,10.57
2018-02-05T19:14:49.123Z,10.71
2018-02-05T19:17:17.857Z,10.69
2018-02-05T19:19:47.316Z,10.68
2018-02-05T19:22:15.997Z,10.62
2018-02-05T19:24:44.753Z,10.54
2018-02-05T19:27:13.429Z,10.59
2018-02-05T19:29:42.096Z,10.51
2018-02-05T19:32:11.865Z,10.52
2018-02-05T19:34:40.453Z,10.50
2018-02-05T19:37:09.150Z,10.43
2018-02-05T19:39:38.339Z,10.53
2018-02-05T19:42:07.024Z,10.54
2018-02-05T19:44:35.699Z,10.47
2018-02-05T19:47:04.305Z,10.64
2018-02-05T19:49:33.082Z,10.61
2018-02-05T19:52:01.703Z,10.74
2018-02-05T19:54:31.375Z,10.64
2018-02-05T19:57:00.752Z,10.65
2018-02-05T19:59:29.463Z,10.62
2018-02-05T20:01:58.661Z,10.70
2018-02-05T20:04:27.395Z,10.49
2018-02-05T20:06:56.846Z,10.32
2018-02-05T20:09:25.581Z,10.24
2018-02-05T20:11:54.999Z,10.02
2018-02-05T20:14:23.718Z,10.34
2018-02-05T20:16:52.413Z,10.29
2018-02-05T20:19:21.098Z,10.23
2018-02-05T20:21:49.882Z,10.31
2018-02-05T20:24:18.681Z,10.23
2018-02-05T20:26:47.406Z,10.28
2018-02-05T20:29:16.796Z,10.27
2018-02-05T20:31:47.192Z,10.14
2018-02-05T20:34:15.879Z,9.87
2018-02-05T20:36:44.602Z,9.61
2018-02-05T20:39:15.042Z,9.64
2018-02-05T20:41:44.364Z,9.55
2018-02-05T20:44:13.272Z,9.52
2018-02-05T20:46:42.067Z,9.33
2018-02-05T20:49:10.714Z,9.33
2018-02-05T20:51:39.445Z,9.15
2018-02-05T20:54:08.374Z,9.13
2018-02-05T20:56:37.836Z,9.09
2018-02-05T20:59:06.418Z,9.09
2018-02-05T21:01:35.207Z,9.01
2018-02-05T21:04:03.894Z,9.01
2018-02-05T21:06:32.475Z,9.09
2018-02-05T21:09:01.209Z,9.03
2018-02-05T21:11:30.528Z,8.93
2018-02-05T21:13:59.194Z,8.99
2018-02-05T21:16:28.556Z,8.78
2018-02-05T21:18:57.335Z,8.77
2018-02-05T21:21:26.021Z,8.76
2018-02-05T21:23:54.966Z,8.81
2018-02-05T21:26:24.355Z,8.59
2018-02-05T21:28:53.826Z,8.53
2018-02-05T21:31:22.769Z,8.36
2018-02-05T21:33:52.216Z,8.38
2018-02-05T21:36:20.773Z,8.38
2018-02-05T21:38:49.748Z,8.34
2018-02-05T21:41:19.195Z,7.83
2018-02-05T21:43:47.880Z,7.53
2018-02-05T21:46:17.051Z,7.14
2018-02-05T21:48:45.612Z,7.14
2018-02-05T21:51:15.069Z,7.31
2018-02-05T21:53:44.061Z,7.62
2018-02-05T21:56:12.746Z,7.84
2018-02-05T21:58:41.440Z,7.85
2018-02-05T22:01:10.321Z,8.07
2018-02-05T22:03:39.013Z,7.98
2018-02-05T22:06:07.700Z,7.97
2018-02-05T22:08:36.305Z,8.08
2018-02-05T22:11:05.000Z,7.94
2018-02-05T22:13:34.470Z,8.01
2018-02-05T22:16:03.311Z,8.04
2018-02-05T22:18:32.763Z,8.01
2018-02-05T22:21:01.459Z,8.02
2018-02-05T22:23:30.145Z,8.06
2018-02-05T22:25:58.921Z,7.99
2018-02-05T22:28:27.610Z,8.12
2018-02-05T22:30:57.120Z,8.13
2018-02-05T22:33:25.898Z,8.19
2018-02-05T22:35:54.584Z,8.21
2018-02-05T22:38:23.668Z,8.24
2018-02-05T22:40:52.314Z,8.14
2018-02-05T22:43:21.772Z,7.84
2018-02-05T22:45:50.459Z,7.77
2018-02-05T22:48:19.201Z,7.75
2018-02-05T22:50:48.638Z,7.60
2018-02-05T22:53:17.381Z,7.65
2018-02-05T22:55:46.736Z,7.67
2018-02-05T22:58:15.365Z,7.63
2018-02-05T23:00:44.921Z,7.72
2018-02-05T23:03:13.617Z,7.88
2018-02-05T23:05:42.267Z,8.02
2018-02-05T23:08:11.013Z,8.33
2018-02-05T23:10:39.774Z,8.35
2018-02-05T23:13:08.460Z,8.42
2018-02-05T23:15:37.244Z,8.46
2018-02-05T23:18:05.931Z,8.40
2018-02-05T23:20:34.616Z,8.49
2018-02-05T23:23:03.316Z,8.56
2018-02-05T23:25:31.864Z,8.49
2018-02-05T23:28:00.558Z,8.30
2018-02-05T23:30:29.273Z,8.38
2018-02-05T23:32:57.834Z,8.29
2018-02-05T23:35:26.532Z,8.24
2018-02-05T23:37:55.472Z,8.29
2018-02-05T23:40:24.925Z,8.36
2018-02-05T23:42:53.511Z,8.45
2018-02-05T23:45:22.658Z,8.58
2018-02-05T23:47:51.390Z,8.58
2018-02-05T23:50:19.981Z,8.38
2018-02-05T23:52:48.661Z,8.37
2018-02-05T23:55:17.220Z,8.55
2018-02-05T23:57:45.889Z,8.49
